createdAt,value
2019-02-26T00:02:04.956Z,7.53
2019-02-26T00:04:35.138Z,7.45
2019-02-26T00:07:05.648Z,7.47
2019-02-26T00:09:35.498Z,7.46
2019-02-26T00:12:05.141Z,7.51
2019-02-26T00:14:34.676Z,7.52
2019-02-26T00:17:08.674Z,7.60
2019-02-26T00:19:35.336Z,7.59
2019-02-26T00:22:07.227Z,7.58
2019-02-26T00:24:37.758Z,7.56
2019-02-26T00:27:09.618Z,7.64
2019-02-26T00:29:38.978Z,7.64
2019-02-26T00:32:09.939Z,7.63
2019-02-26T00:34:41.158Z,7.61
2019-02-26T00:37:10.882Z,7.70
2019-02-26T00:39:40.455Z,7.65
2019-02-26T00:42:10.490Z,7.62
2019-02-26T00:44:39.986Z,7.67
2019-02-26T00:47:10.032Z,7.67
2019-02-26T00:49:39.565Z,7.66
2019-02-26T00:52:11.068Z,7.65
2019-02-26T00:54:40.654Z,7.66
2019-02-26T00:57:11.593Z,7.66
2019-02-26T00:59:43.607Z,7.69
2019-02-26T01:02:12.551Z,7.70
2019-02-26T01:04:43.846Z,7.66
2019-02-26T01:07:13.207Z,7.73
2019-02-26T01:09:42.671Z,7.71
2019-02-26T01:12:13.792Z,7.73
2019-02-26T01:14:44.208Z,7.71
2019-02-26T01:17:16.458Z,7.72
2019-02-26T01:19:45.830Z,7.69
2019-02-26T01:22:15.311Z,7.67
2019-02-26T01:24:44.953Z,7.66
2019-02-26T01:27:14.568Z,7.71
2019-02-26T01:29:44.566Z,7.66
2019-02-26T01:32:17.545Z,7.64
2019-02-26T01:34:47.829Z,7.65
2019-02-26T01:37:17.648Z,7.60
2019-02-26T01:39:49.593Z,7.57
2019-02-26T01:42:22.346Z,7.61
2019-02-26T01:44:49.542Z,7.65
2019-02-26T01:47:19.679Z,7.59
2019-02-26T01:49:51.136Z,7.58
2019-02-26T01:52:20.722Z,7.53
2019-02-26T01:54:51.377Z,7.48
2019-02-26T01:57:21.497Z,7.48
2019-02-26T01:59:51.019Z,7.42
2019-02-26T02:02:22.726Z,7.39
2019-02-26T02:04:51.655Z,7.32
2019-02-26T02:07:23.716Z,7.35
2019-02-26T02:09:53.190Z,7.27
2019-02-26T02:12:27.417Z,7.36
2019-02-26T02:14:54.881Z,7.28
2019-02-26T02:17:24.351Z,7.21
2019-02-26T02:19:53.994Z,7.16
2019-02-26T02:22:23.484Z,7.20
2019-02-26T02:24:53.962Z,7.22
2019-02-26T02:27:27.212Z,7.21
2019-02-26T02:29:57.663Z,7.16
2019-02-26T02:32:28.741Z,7.13
2019-02-26T02:35:00.514Z,7.10
2019-02-26T02:37:30.085Z,7.08
2019-02-26T02:40:00.289Z,7.05
2019-02-26T02:42:29.789Z,6.96
2019-02-26T02:44:59.251Z,6.93
2019-02-26T02:47:31.584Z,6.99
2019-02-26T02:50:00.053Z,6.91
2019-02-26T02:52:32.257Z,6.84
2019-02-26T02:55:01.014Z,6.73
2019-02-26T02:57:32.654Z,6.59
2019-02-26T03:00:02.977Z,6.58
2019-02-26T03:02:37.488Z,6.61
2019-02-26T03:05:05.048Z,6.60
2019-02-26T03:07:34.507Z,6.61
2019-02-26T03:10:06.789Z,6.65
2019-02-26T03:12:36.331Z,6.70
2019-02-26T03:15:14.953Z,6.62
2019-02-26T03:17:44.515Z,6.58
2019-02-26T03:20:17.045Z,6.52
2019-02-26T03:22:49.198Z,6.45
2019-02-26T03:25:23.003Z,6.45
2019-02-26T03:27:49.912Z,6.41
2019-02-26T03:30:31.745Z,6.48
2019-02-26T03:32:58.623Z,6.50
2019-02-26T03:35:24.447Z,6.40
2019-02-26T03:37:55.536Z,6.37
2019-02-26T03:40:27.264Z,6.39
2019-02-26T03:42:56.269Z,6.30
2019-02-26T03:45:25.755Z,6.32
2019-02-26T03:47:57.789Z,6.36
2019-02-26T03:50:27.257Z,6.28
2019-02-26T03:52:56.824Z,6.31
2019-02-26T03:55:26.326Z,6.34
2019-02-26T03:57:58.542Z,6.58
2019-02-26T04:00:27.425Z,6.60
2019-02-26T04:02:57.018Z,6.55
2019-02-26T04:05:26.476Z,6.57
2019-02-26T04:07:58.915Z,6.56
2019-02-26T04:10:27.472Z,6.50
2019-02-26T04:12:58.198Z,6.46
2019-02-26T04:15:30.031Z,6.37
2019-02-26T04:17:58.905Z,6.38
2019-02-26T04:20:28.373Z,6.34
2019-02-26T04:22:57.873Z,6.36
2019-02-26T04:25:36.469Z,6.34
2019-02-26T04:28:16.795Z,6.42
2019-02-26T04:30:59.815Z,6.41
2019-02-26T04:34:13.567Z,6.24
2019-02-26T04:37:10.348Z,6.16
2019-02-26T04:40:10.156Z,6.13
2019-02-26T04:42:52.121Z,6.07
2019-02-26T04:45:47.498Z,6.06
2019-02-26T04:48:26.944Z,6.06
2019-02-26T04:50:55.801Z,6.01
2019-02-26T04:53:25.822Z,6.08
2019-02-26T04:55:57.493Z,6.03
2019-02-26T04:58:27.822Z,6.00
2019-02-26T05:00:57.278Z,5.99
2019-02-26T05:03:26.797Z,6.10
2019-02-26T05:05:57.296Z,6.21
2019-02-26T05:08:29.390Z,6.11
2019-02-26T05:11:00.008Z,6.22
2019-02-26T05:13:32.142Z,6.12
2019-02-26T05:16:01.233Z,6.17
2019-02-26T05:18:32.625Z,6.26
2019-02-26T05:21:04.596Z,6.22
2019-02-26T05:23:33.677Z,6.20
2019-02-26T05:26:05.616Z,6.17
2019-02-26T05:28:37.649Z,6.16
2019-02-26T05:31:06.597Z,6.20
2019-02-26T05:33:36.951Z,6.25
2019-02-26T05:36:08.792Z,6.25
2019-02-26T05:38:37.778Z,6.31
2019-02-26T05:41:07.665Z,6.39
2019-02-26T05:43:37.058Z,6.43
2019-02-26T05:46:06.549Z,6.35
2019-02-26T05:48:37.236Z,6.35
2019-02-26T05:51:09.343Z,6.46
2019-02-26T05:53:38.569Z,6.50
2019-02-26T05:56:08.899Z,6.53
2019-02-26T05:58:41.321Z,6.55
2019-02-26T06:01:10.437Z,6.61
2019-02-26T06:03:41.042Z,6.67
2019-02-26T06:06:11.278Z,6.61
2019-02-26T06:08:41.281Z,6.62
2019-02-26T06:11:10.883Z,6.71
2019-02-26T06:13:43.108Z,6.69
2019-02-26T06:16:11.605Z,6.65
2019-02-26T06:18:41.963Z,6.64
2019-02-26T06:21:15.269Z,6.73
2019-02-26T06:23:45.918Z,6.79
2019-02-26T06:26:17.742Z,6.90
2019-02-26T06:28:53.228Z,7.01
2019-02-26T06:31:25.007Z,7.04
2019-02-26T06:33:54.245Z,7.07
2019-02-26T06:36:25.621Z,7.14
2019-02-26T06:38:56.462Z,7.20
2019-02-26T06:41:26.255Z,7.31
2019-02-26T06:43:55.759Z,7.43
2019-02-26T06:46:26.986Z,7.51
2019-02-26T06:48:56.440Z,7.59
2019-02-26T06:51:26.555Z,7.64
2019-02-26T06:53:58.835Z,7.71
2019-02-26T06:56:30.132Z,7.84
2019-02-26T06:59:05.751Z,7.98
2019-02-26T07:01:37.404Z,8.13
2019-02-26T07:04:06.947Z,8.21
2019-02-26T07:06:38.010Z,8.41
2019-02-26T07:09:08.716Z,8.60
2019-02-26T07:11:38.792Z,8.79
2019-02-26T07:14:10.227Z,8.95
2019-02-26T07:16:40.337Z,9.14
2019-02-26T07:19:12.246Z,9.36
2019-02-26T07:21:42.865Z,9.56
2019-02-26T07:24:12.519Z,9.77
2019-02-26T07:26:44.089Z,9.96
2019-02-26T07:29:17.357Z,10.07
2019-02-26T07:31:44.538Z,10.17
2019-02-26T07:34:15.742Z,10.28
2019-02-26T07:36:46.095Z,10.44
2019-02-26T07:39:18.265Z,10.73
2019-02-26T07:41:49.380Z,11.00
2019-02-26T07:44:21.246Z,11.36
2019-02-26T07:46:50.115Z,11.67
2019-02-26T07:49:20.026Z,11.86
2019-02-26T07:51:49.699Z,12.10
2019-02-26T07:54:19.173Z,12.28
2019-02-26T07:56:50.160Z,12.45
2019-02-26T07:59:27.433Z,12.64
2019-02-26T08:01:51.176Z,12.89
2019-02-26T08:04:20.690Z,13.20
2019-02-26T08:06:51.950Z,13.45
2019-02-26T08:09:23.601Z,13.63
2019-02-26T08:11:52.621Z,13.81
2019-02-26T08:14:23.304Z,14.16
2019-02-26T08:16:55.663Z,14.52
2019-02-26T08:19:29.767Z,14.82
2019-02-26T08:21:57.132Z,15.09
2019-02-26T08:24:26.733Z,15.27
2019-02-26T08:26:56.215Z,15.18
2019-02-26T08:29:27.241Z,15.27
2019-02-26T08:31:59.237Z,15.54
2019-02-26T08:34:28.168Z,15.78
2019-02-26T08:36:57.656Z,16.01
2019-02-26T08:39:27.127Z,16.08
2019-02-26T08:42:09.143Z,16.26
2019-02-26T08:44:38.622Z,16.37
2019-02-26T08:47:11.207Z,16.52
2019-02-26T08:49:40.704Z,16.52
2019-02-26T08:52:10.523Z,16.50
2019-02-26T08:54:39.996Z,16.69
2019-02-26T08:57:09.840Z,16.65
2019-02-26T08:59:42.260Z,16.81
2019-02-26T09:02:11.923Z,16.89
2019-02-26T09:04:42.584Z,16.96
2019-02-26T09:07:14.163Z,16.91
2019-02-26T09:09:45.147Z,16.93
2019-02-26T09:12:15.661Z,17.06
2019-02-26T09:14:48.118Z,17.06
2019-02-26T09:17:20.928Z,17.22
2019-02-26T09:19:50.886Z,17.31
2019-02-26T09:22:21.254Z,17.59
2019-02-26T09:24:52.047Z,17.66
2019-02-26T09:27:22.395Z,17.47
2019-02-26T09:29:51.854Z,17.44
2019-02-26T09:32:21.533Z,17.54
2019-02-26T09:34:52.023Z,17.68
2019-02-26T09:37:22.275Z,17.64
2019-02-26T09:39:52.444Z,17.44
2019-02-26T09:42:23.814Z,17.64
2019-02-26T09:44:55.450Z,17.77
2019-02-26T09:47:33.311Z,18.03
2019-02-26T09:50:02.195Z,18.36
2019-02-26T09:52:32.680Z,18.68
2019-02-26T09:55:02.357Z,19.12
2019-02-26T09:57:31.854Z,19.47
2019-02-26T10:00:03.334Z,19.48
2019-02-26T10:02:32.549Z,19.49
2019-02-26T10:05:02.019Z,19.20
2019-02-26T10:07:35.531Z,19.15
2019-02-26T10:10:04.013Z,18.99
2019-02-26T10:12:34.775Z,19.09
2019-02-26T10:15:11.065Z,19.10
2019-02-26T10:17:42.702Z,19.29
2019-02-26T10:20:23.263Z,19.35
2019-02-26T10:22:54.770Z,19.44
2019-02-26T10:25:25.697Z,19.71
2019-02-26T10:27:54.940Z,19.96
2019-02-26T10:30:24.407Z,19.95
2019-02-26T10:32:53.879Z,20.14
2019-02-26T10:35:33.259Z,20.52
2019-02-26T10:38:00.373Z,20.62
2019-02-26T10:40:35.366Z,20.23
2019-02-26T10:43:00.480Z,20.31
2019-02-26T10:45:36.073Z,20.35
2019-02-26T10:48:03.872Z,20.89
2019-02-26T10:50:33.569Z,20.97
2019-02-26T10:53:09.738Z,21.36
2019-02-26T10:55:38.630Z,21.34
2019-02-26T10:58:10.041Z,21.28
2019-02-26T11:00:38.007Z,21.53
2019-02-26T11:03:09.227Z,21.25
2019-02-26T11:05:39.713Z,21.12
2019-02-26T11:08:10.076Z,21.05
2019-02-26T11:10:42.169Z,20.91
2019-02-26T11:13:13.032Z,20.86
2019-02-26T11:15:42.032Z,21.08
2019-02-26T11:18:12.338Z,21.06
2019-02-26T11:20:45.130Z,20.83
2019-02-26T11:23:16.107Z,20.62
2019-02-26T11:25:45.175Z,20.75
2019-02-26T11:28:14.648Z,21.11
2019-02-26T11:30:44.803Z,20.79
2019-02-26T11:33:15.613Z,20.99
2019-02-26T11:35:47.096Z,20.85
2019-02-26T11:38:17.142Z,20.96
2019-02-26T11:40:47.546Z,20.97
2019-02-26T11:43:20.181Z,21.28
2019-02-26T11:45:48.296Z,21.83
2019-02-26T11:48:17.884Z,21.89
2019-02-26T11:50:47.464Z,22.76
2019-02-26T11:53:16.967Z,23.43
2019-02-26T11:55:46.450Z,24.41
2019-02-26T11:58:18.745Z,24.77
2019-02-26T12:00:51.894Z,24.68
2019-02-26T12:03:24.902Z,23.99
2019-02-26T12:05:54.175Z,24.06
2019-02-26T12:08:25.732Z,24.40
2019-02-26T12:10:58.019Z,24.92
2019-02-26T12:13:27.664Z,25.98
2019-02-26T12:15:57.409Z,27.38
2019-02-26T12:18:26.872Z,27.65
2019-02-26T12:20:56.332Z,26.58
2019-02-26T12:23:25.880Z,27.07
2019-02-26T12:25:56.440Z,29.50
2019-02-26T12:28:28.318Z,31.35
2019-02-26T12:30:58.622Z,34.55
2019-02-26T12:33:32.373Z,36.25
2019-02-26T12:36:01.969Z,34.87
2019-02-26T12:38:31.510Z,34.96
2019-02-26T12:41:01.164Z,33.91
2019-02-26T12:43:32.990Z,32.91
2019-02-26T12:46:04.533Z,33.55
2019-02-26T12:48:36.589Z,33.88
2019-02-26T12:51:04.730Z,35.17
2019-02-26T12:53:38.065Z,35.47
2019-02-26T12:56:08.880Z,34.23
2019-02-26T12:58:40.899Z,33.28
2019-02-26T13:01:09.901Z,32.12
2019-02-26T13:03:42.553Z,30.96
2019-02-26T13:06:12.129Z,30.53
2019-02-26T13:08:42.709Z,30.14
2019-02-26T13:11:14.151Z,31.26
2019-02-26T13:13:45.234Z,30.32
2019-02-26T13:16:15.647Z,32.18
2019-02-26T13:18:47.823Z,33.11
2019-02-26T13:21:17.216Z,32.40
2019-02-26T13:23:47.105Z,33.35
2019-02-26T13:26:19.621Z,33.71
2019-02-26T13:28:53.031Z,32.96
2019-02-26T13:31:22.312Z,30.78
2019-02-26T13:33:50.379Z,28.25
2019-02-26T13:36:19.848Z,26.67
2019-02-26T13:38:50.469Z,26.07
2019-02-26T13:41:29.591Z,24.02
2019-02-26T13:43:51.211Z,23.57
2019-02-26T13:46:20.704Z,23.91
2019-02-26T13:48:50.196Z,23.98
2019-02-26T13:51:19.681Z,26.67
2019-02-26T13:53:49.263Z,28.82
2019-02-26T13:56:18.755Z,28.77
2019-02-26T13:58:48.330Z,28.91
2019-02-26T14:01:17.819Z,28.44
2019-02-26T14:03:47.303Z,28.44
2019-02-26T14:06:17.058Z,26.29
2019-02-26T14:08:46.571Z,24.45
2019-02-26T14:11:16.038Z,23.17
2019-02-26T14:13:45.519Z,22.83
2019-02-26T14:16:15.130Z,22.11
2019-02-26T14:18:44.595Z,21.90
2019-02-26T14:21:14.460Z,21.52
2019-02-26T14:23:43.891Z,21.26
2019-02-26T14:26:13.363Z,20.89
2019-02-26T14:28:42.824Z,20.59
2019-02-26T14:31:12.431Z,20.40
2019-02-26T14:33:41.899Z,20.29
2019-02-26T14:36:11.399Z,20.32
2019-02-26T14:38:40.906Z,20.17
2019-02-26T14:41:10.442Z,19.88
2019-02-26T14:43:40.104Z,19.73
2019-02-26T14:46:09.591Z,19.62
2019-02-26T14:48:39.120Z,19.60
2019-02-26T14:51:08.638Z,19.33
2019-02-26T14:53:38.103Z,19.29
2019-02-26T14:56:07.748Z,19.09
2019-02-26T14:58:37.364Z,18.89
2019-02-26T15:01:06.862Z,18.84
2019-02-26T15:03:36.337Z,18.55
2019-02-26T15:06:05.838Z,18.39
2019-02-26T15:08:35.494Z,18.40
2019-02-26T15:11:04.976Z,18.33
2019-02-26T15:13:34.479Z,18.31
2019-02-26T15:16:03.963Z,18.20
2019-02-26T15:18:35.749Z,18.12
2019-02-26T15:21:05.145Z,18.14
2019-02-26T15:23:34.622Z,18.12
2019-02-26T15:26:04.086Z,18.09
2019-02-26T15:28:33.848Z,18.04
2019-02-26T15:31:03.321Z,17.95
2019-02-26T15:33:32.803Z,18.05
2019-02-26T15:36:04.137Z,17.87
2019-02-26T15:38:33.796Z,17.87
2019-02-26T15:41:03.667Z,17.96
2019-02-26T15:43:33.235Z,17.94
2019-02-26T15:46:02.690Z,17.89
2019-02-26T15:48:33.685Z,17.93
2019-02-26T15:51:03.389Z,18.05
2019-02-26T15:53:32.875Z,18.01
2019-02-26T15:56:02.382Z,18.10
2019-02-26T15:58:34.184Z,18.05
2019-02-26T16:01:03.094Z,17.96
2019-02-26T16:03:32.574Z,17.85
2019-02-26T16:06:02.050Z,17.84
2019-02-26T16:08:34.510Z,17.77
2019-02-26T16:11:02.750Z,17.80
2019-02-26T16:13:32.239Z,17.67
2019-02-26T16:16:01.923Z,17.54
2019-02-26T16:18:31.499Z,17.41
2019-02-26T16:21:00.969Z,17.37
2019-02-26T16:23:30.467Z,17.34
2019-02-26T16:26:00.010Z,17.35
2019-02-26T16:28:29.658Z,17.32
2019-02-26T16:30:59.170Z,17.14
2019-02-26T16:33:28.687Z,17.00
2019-02-26T16:35:58.392Z,16.91
2019-02-26T16:38:28.049Z,16.91
2019-02-26T16:40:57.524Z,16.83
2019-02-26T16:43:27.004Z,16.80
2019-02-26T16:45:56.514Z,16.76
2019-02-26T16:48:25.987Z,16.67
2019-02-26T16:50:55.462Z,16.62
2019-02-26T16:53:25.168Z,16.62
2019-02-26T16:55:54.762Z,16.66
2019-02-26T16:58:24.316Z,16.56
2019-02-26T17:00:53.808Z,16.48
2019-02-26T17:03:23.292Z,16.46
2019-02-26T17:05:52.777Z,16.48
2019-02-26T17:08:22.279Z,16.36
2019-02-26T17:10:51.777Z,16.31
2019-02-26T17:13:21.246Z,16.30
2019-02-26T17:15:51.141Z,16.25
2019-02-26T17:18:20.730Z,16.17
2019-02-26T17:20:50.196Z,16.13
2019-02-26T17:23:19.686Z,16.07
2019-02-26T17:25:49.154Z,16.00
2019-02-26T17:28:18.899Z,15.98
2019-02-26T17:30:48.411Z,15.85
2019-02-26T17:33:17.864Z,15.81
2019-02-26T17:35:47.440Z,15.77
2019-02-26T17:38:18.054Z,15.70
2019-02-26T17:40:48.300Z,15.68
2019-02-26T17:43:17.779Z,15.61
2019-02-26T17:45:47.294Z,15.52
2019-02-26T17:48:16.753Z,15.47
2019-02-26T17:50:46.618Z,15.35
2019-02-26T17:53:16.355Z,15.30
2019-02-26T17:55:46.944Z,15.24
2019-02-26T17:58:16.584Z,15.20
2019-02-26T18:00:53.477Z,15.12
2019-02-26T18:03:22.953Z,14.98
2019-02-26T18:05:52.435Z,14.94
2019-02-26T18:08:21.944Z,14.94
2019-02-26T18:10:51.523Z,14.88
2019-02-26T18:13:21.288Z,14.81
2019-02-26T18:15:50.898Z,14.93
2019-02-26T18:18:20.368Z,14.87
2019-02-26T18:20:49.851Z,14.84
2019-02-26T18:23:19.361Z,14.73
2019-02-26T18:25:48.935Z,14.70
2019-02-26T18:28:18.430Z,14.62
2019-02-26T18:30:47.923Z,14.58
2019-02-26T18:33:17.389Z,14.53
2019-02-26T18:35:46.904Z,14.55
2019-02-26T18:38:17.424Z,14.47
2019-02-26T18:40:47.042Z,14.41
2019-02-26T18:43:16.552Z,14.38
2019-02-26T18:45:46.224Z,14.37
2019-02-26T18:48:15.808Z,14.46
2019-02-26T18:50:45.382Z,14.37
2019-02-26T18:53:14.859Z,14.31
2019-02-26T18:55:44.353Z,14.23
2019-02-26T18:58:16.491Z,14.21
2019-02-26T19:00:45.073Z,14.24
2019-02-26T19:03:14.540Z,14.13
2019-02-26T19:05:44.055Z,14.08
2019-02-26T19:08:13.536Z,14.08
2019-02-26T19:10:43.157Z,14.09
2019-02-26T19:13:12.638Z,14.10
2019-02-26T19:15:42.113Z,14.16
2019-02-26T19:18:11.634Z,14.08
2019-02-26T19:20:41.421Z,13.95
2019-02-26T19:23:11.059Z,13.96
2019-02-26T19:25:41.732Z,13.91
2019-02-26T19:28:11.733Z,13.88
2019-02-26T19:30:41.221Z,13.95
2019-02-26T19:33:10.726Z,14.03
2019-02-26T19:35:59.623Z,14.14
2019-02-26T19:38:29.137Z,14.08
2019-02-26T19:41:12.378Z,14.00
2019-02-26T19:43:40.874Z,14.09
2019-02-26T19:46:10.373Z,14.11
2019-02-26T19:48:40.316Z,14.13
2019-02-26T19:51:09.826Z,14.18
2019-02-26T19:53:39.373Z,14.13
2019-02-26T19:56:08.889Z,14.12
2019-02-26T19:58:40.601Z,14.10
2019-02-26T20:01:09.693Z,14.10
2019-02-26T20:03:58.559Z,14.14
2019-02-26T20:06:28.064Z,14.02
2019-02-26T20:08:57.535Z,13.99
2019-02-26T20:11:27.047Z,13.94
2019-02-26T20:14:04.538Z,13.93
2019-02-26T20:16:28.406Z,13.94
2019-02-26T20:18:59.164Z,13.89
2019-02-26T20:21:29.307Z,13.88
2019-02-26T20:23:58.795Z,13.83
2019-02-26T20:26:28.299Z,13.79
2019-02-26T20:28:57.770Z,13.66
2019-02-26T20:31:28.899Z,13.56
2019-02-26T20:33:58.755Z,13.47
2019-02-26T20:36:28.233Z,13.41
2019-02-26T20:38:57.768Z,13.41
2019-02-26T20:41:27.275Z,13.44
2019-02-26T20:43:56.955Z,13.39
2019-02-26T20:46:26.443Z,13.30
2019-02-26T20:48:55.956Z,13.29
2019-02-26T20:51:27.200Z,13.24
2019-02-26T20:53:56.624Z,13.19
2019-02-26T20:56:28.519Z,13.18
2019-02-26T20:58:57.547Z,13.16
2019-02-26T21:01:27.081Z,13.13
2019-02-26T21:03:56.685Z,13.07
2019-02-26T21:06:26.324Z,13.00
2019-02-26T21:08:55.800Z,13.00
2019-02-26T21:11:25.305Z,13.01
2019-02-26T21:13:54.896Z,13.03
2019-02-26T21:16:24.470Z,12.98
2019-02-26T21:18:53.973Z,12.96
2019-02-26T21:21:23.566Z,13.01
2019-02-26T21:23:53.076Z,13.03
2019-02-26T21:26:22.583Z,12.98
2019-02-26T21:28:52.087Z,12.91
2019-02-26T21:31:21.553Z,13.06
2019-02-26T21:33:51.159Z,13.05
2019-02-26T21:36:20.615Z,13.07
2019-02-26T21:38:50.304Z,13.07
2019-02-26T21:41:21.055Z,13.07
2019-02-26T21:43:51.002Z,13.05
2019-02-26T21:46:22.682Z,13.01
2019-02-26T21:48:51.823Z,12.92
2019-02-26T21:51:21.315Z,12.94
2019-02-26T21:53:50.790Z,12.88
2019-02-26T21:56:20.297Z,13.03
2019-02-26T21:58:49.810Z,13.02
2019-02-26T22:01:19.285Z,12.89
2019-02-26T22:03:48.847Z,12.84
2019-02-26T22:06:18.368Z,12.79
2019-02-26T22:08:47.848Z,12.76
2019-02-26T22:11:18.447Z,12.82
2019-02-26T22:13:49.113Z,12.77
2019-02-26T22:16:18.727Z,12.70
2019-02-26T22:18:49.159Z,12.68
2019-02-26T22:21:19.613Z,12.55
2019-02-26T22:23:49.403Z,12.50
2019-02-26T22:26:19.232Z,12.42
2019-02-26T22:28:49.161Z,12.53
2019-02-26T22:31:18.986Z,12.44
2019-02-26T22:33:48.541Z,12.31
2019-02-26T22:36:18.006Z,12.17
2019-02-26T22:38:49.117Z,12.15
2019-02-26T22:41:18.723Z,12.01
2019-02-26T22:43:48.300Z,11.95
2019-02-26T22:46:17.782Z,11.94
2019-02-26T22:48:47.710Z,12.01
2019-02-26T22:51:18.672Z,12.02
2019-02-26T22:53:48.345Z,11.99
2019-02-26T22:56:17.912Z,11.93
2019-02-26T22:58:47.419Z,11.91
2019-02-26T23:01:30.242Z,11.91
2019-02-26T23:03:53.523Z,11.85
2019-02-26T23:06:22.997Z,11.77
2019-02-26T23:08:52.505Z,11.77
2019-02-26T23:11:22.089Z,11.65
2019-02-26T23:13:51.567Z,11.58
2019-02-26T23:16:21.070Z,11.58
2019-02-26T23:18:50.541Z,11.46
2019-02-26T23:21:20.165Z,11.44
2019-02-26T23:23:49.629Z,11.25
2019-02-26T23:26:19.111Z,11.05
2019-02-26T23:28:48.627Z,10.88
2019-02-26T23:31:18.625Z,10.78
2019-02-26T23:33:49.044Z,10.69
2019-02-26T23:36:18.662Z,10.57
2019-02-26T23:38:48.136Z,10.59
2019-02-26T23:41:17.615Z,10.56
2019-02-26T23:43:47.220Z,10.42
2019-02-26T23:46:16.692Z,10.41
2019-02-26T23:48:46.175Z,10.35
2019-02-26T23:51:20.249Z,10.23
2019-02-26T23:53:46.851Z,10.20
2019-02-26T23:56:16.789Z,10.11
2019-02-26T23:58:47.530Z,10.02
